Terminal Aerodrome Forecast
Issued by NWS

Home | Current Version | Previous Version | Text Only | Print | Product List | Glossary On
Versions: 1 2 3 4 5 6 7 8 9 10 11 12 13 14 15 16 17 18 19 20 21 22 23
000
FTUS43 KDMX 251139
TAFOTM
TAF
KOTM 251139Z 2512/2612 16011KT P6SM BKN200
     FM251400 17011KT P6SM VCSH OVC150
     FM251600 15012KT P6SM OVC090
     FM260100 15010KT P6SM VCTS OVC035CB
     FM260500 19009KT 5SM -SHRA OVC018
     FM260800 24010KT 5SM -SHRA OVC009
     FM261000 27010KT 5SM -SHRA OVC005=

USA.gov is the U.S. government's official web portal to all federal, state and local government web resources and services.